sensor_id;sensor_type;location;lat;lon;timestamp;temperature;humidity
74488;DHT22;63019;51.080;13.642;2022-09-21T00:00:02;10.40;79.30
74488;DHT22;63019;51.080;13.642;2022-09-21T00:01:09;10.50;79.50
74488;DHT22;63019;51.080;13.642;2022-09-21T00:02:11;10.50;79.80
74488;DHT22;63019;51.080;13.642;2022-09-21T00:03:14;10.40;79.50
74488;DHT22;63019;51.080;13.642;2022-09-21T00:04:16;10.40;79.40
74488;DHT22;63019;51.080;13.642;2022-09-21T00:05:18;10.40;79.50
74488;DHT22;63019;51.080;13.642;2022-09-21T00:06:20;10.40;79.60
74488;DHT22;63019;51.080;13.642;2022-09-21T00:07:22;10.40;79.60
74488;DHT22;63019;51.080;13.642;2022-09-21T00:08:24;10.40;79.70
74488;DHT22;63019;51.080;13.642;2022-09-21T00:09:26;10.40;79.00
74488;DHT22;63019;51.080;13.642;2022-09-21T00:10:28;10.40;79.20
74488;DHT22;63019;51.080;13.642;2022-09-21T00:11:31;10.40;79.40
74488;DHT22;63019;51.080;13.642;2022-09-21T00:12:33;10.40;79.20
74488;DHT22;63019;51.080;13.642;2022-09-21T00:13:39;10.40;79.10
74488;DHT22;63019;51.080;13.642;2022-09-21T00:14:41;10.40;80.00
74488;DHT22;63019;51.080;13.642;2022-09-21T00:15:43;10.40;79.40
74488;DHT22;63019;51.080;13.642;2022-09-21T00:16:45;10.40;79.30
74488;DHT22;63019;51.080;13.642;2022-09-21T00:17:47;10.40;79.50
74488;DHT22;63019;51.080;13.642;2022-09-21T00:18:52;10.40;79.40
74488;DHT22;63019;51.080;13.642;2022-09-21T00:19:54;10.40;79.60
74488;DHT22;63019;51.080;13.642;2022-09-21T00:20:55;10.40;80.20
74488;DHT22;63019;51.080;13.642;2022-09-21T00:21:57;10.40;80.30
74488;DHT22;63019;51.080;13.642;2022-09-21T00:22:59;10.40;80.10
74488;DHT22;63019;51.080;13.642;2022-09-21T00:24:00;10.40;80.20
74488;DHT22;63019;51.080;13.642;2022-09-21T00:25:03;10.40;80.40
74488;DHT22;63019;51.080;13.642;2022-09-21T00:26:12;10.40;80.50
74488;DHT22;63019;51.080;13.642;2022-09-21T00:27:14;10.40;80.20
74488;DHT22;63019;51.080;13.642;2022-09-21T00:28:16;10.40;80.20
74488;DHT22;63019;51.080;13.642;2022-09-21T00:29:18;10.40;80.00
74488;DHT22;63019;51.080;13.642;2022-09-21T00:30:19;10.40;79.70
74488;DHT22;63019;51.080;13.642;2022-09-21T00:31:21;10.40;80.10
74488;DHT22;63019;51.080;13.642;2022-09-21T00:32:24;10.40;79.80
74488;DHT22;63019;51.080;13.642;2022-09-21T00:33:25;10.40;79.80
74488;DHT22;63019;51.080;13.642;2022-09-21T00:34:27;10.40;79.30
74488;DHT22;63019;51.080;13.642;2022-09-21T00:35:29;10.40;79.60
74488;DHT22;63019;51.080;13.642;2022-09-21T00:36:30;10.40;79.60
74488;DHT22;63019;51.080;13.642;2022-09-21T00:37:33;10.40;79.10
74488;DHT22;63019;51.080;13.642;2022-09-21T00:38:35;10.40;79.30
74488;DHT22;63019;51.080;13.642;2022-09-21T00:39:37;10.40;78.90
74488;DHT22;63019;51.080;13.642;2022-09-21T00:40:39;10.40;78.80
74488;DHT22;63019;51.080;13.642;2022-09-21T00:41:40;10.40;78.80
74488;DHT22;63019;51.080;13.642;2022-09-21T00:42:42;10.40;79.10
74488;DHT22;63019;51.080;13.642;2022-09-21T00:43:46;10.40;78.90
74488;DHT22;63019;51.080;13.642;2022-09-21T00:44:48;10.40;78.90
74488;DHT22;63019;51.080;13.642;2022-09-21T00:46:04;10.40;79.10
74488;DHT22;63019;51.080;13.642;2022-09-21T00:47:12;10.40;78.80
74488;DHT22;63019;51.080;13.642;2022-09-21T00:48:14;10.40;78.30
74488;DHT22;63019;51.080;13.642;2022-09-21T00:49:16;10.40;78.40
74488;DHT22;63019;51.080;13.642;2022-09-21T00:50:21;10.40;78.60
74488;DHT22;63019;51.080;13.642;2022-09-21T00:51:24;10.40;78.20
74488;DHT22;63019;51.080;13.642;2022-09-21T00:52:29;10.40;78.30
74488;DHT22;63019;51.080;13.642;2022-09-21T00:53:34;10.40;78.10
74488;DHT22;63019;51.080;13.642;2022-09-21T00:54:42;10.40;78.30
74488;DHT22;63019;51.080;13.642;2022-09-21T00:55:49;10.40;78.40
74488;DHT22;63019;51.080;13.642;2022-09-21T00:56:53;10.40;78.20
74488;DHT22;63019;51.080;13.642;2022-09-21T00:58:02;10.40;78.00
74488;DHT22;63019;51.080;13.642;2022-09-21T00:59:05;10.40;77.90
74488;DHT22;63019;51.080;13.642;2022-09-21T01:00:09;10.40;77.90
74488;DHT22;63019;51.080;13.642;2022-09-21T01:01:12;10.40;78.30
74488;DHT22;63019;51.080;13.642;2022-09-21T01:02:16;10.40;77.90
74488;DHT22;63019;51.080;13.642;2022-09-21T01:03:18;10.40;78.30
74488;DHT22;63019;51.080;13.642;2022-09-21T01:04:20;10.40;78.10
74488;DHT22;63019;51.080;13.642;2022-09-21T01:05:22;10.40;78.00
74488;DHT22;63019;51.080;13.642;2022-09-21T01:06:24;10.40;78.70
74488;DHT22;63019;51.080;13.642;2022-09-21T01:07:28;10.40;78.10
74488;DHT22;63019;51.080;13.642;2022-09-21T01:08:32;10.40;77.90
74488;DHT22;63019;51.080;13.642;2022-09-21T01:09:35;10.40;78.10
74488;DHT22;63019;51.080;13.642;2022-09-21T01:15:34;10.40;77.90
74488;DHT22;63019;51.080;13.642;2022-09-21T01:17:45;10.40;77.60
74488;DHT22;63019;51.080;13.642;2022-09-21T01:23:17;10.40;78.00
74488;DHT22;63019;51.080;13.642;2022-09-21T01:24:36;10.40;77.40
74488;DHT22;63019;51.080;13.642;2022-09-21T01:26:03;10.40;78.00
74488;DHT22;63019;51.080;13.642;2022-09-21T01:27:19;10.30;78.50
74488;DHT22;63019;51.080;13.642;2022-09-21T01:29:05;10.30;78.20
74488;DHT22;63019;51.080;13.642;2022-09-21T01:30:12;10.40;78.10
74488;DHT22;63019;51.080;13.642;2022-09-21T01:31:24;10.40;78.20
74488;DHT22;63019;51.080;13.642;2022-09-21T01:32:28;10.40;78.50
74488;DHT22;63019;51.080;13.642;2022-09-21T01:33:37;10.40;78.50
74488;DHT22;63019;51.080;13.642;2022-09-21T01:35:54;10.30;78.30
74488;DHT22;63019;51.080;13.642;2022-09-21T01:37:00;10.30;78.60
74488;DHT22;63019;51.080;13.642;2022-09-21T01:38:12;10.30;78.70
74488;DHT22;63019;51.080;13.642;2022-09-21T01:39:17;10.30;78.80
74488;DHT22;63019;51.080;13.642;2022-09-21T01:40:31;10.30;79.10
74488;DHT22;63019;51.080;13.642;2022-09-21T01:41:38;10.30;79.10
74488;DHT22;63019;51.080;13.642;2022-09-21T01:42:43;10.20;79.40
74488;DHT22;63019;51.080;13.642;2022-09-21T01:43:51;10.30;79.10
74488;DHT22;63019;51.080;13.642;2022-09-21T01:44:59;10.30;79.20
74488;DHT22;63019;51.080;13.642;2022-09-21T01:46:03;10.20;79.10
74488;DHT22;63019;51.080;13.642;2022-09-21T01:47:09;10.20;79.10
74488;DHT22;63019;51.080;13.642;2022-09-21T01:48:13;10.10;79.30
74488;DHT22;63019;51.080;13.642;2022-09-21T01:49:20;10.10;79.20
74488;DHT22;63019;51.080;13.642;2022-09-21T01:50:24;10.10;79.20
74488;DHT22;63019;51.080;13.642;2022-09-21T01:51:28;10.10;79.70
74488;DHT22;63019;51.080;13.642;2022-09-21T01:53:56;10.10;80.10
74488;DHT22;63019;51.080;13.642;2022-09-21T01:55:11;10.10;79.70
74488;DHT22;63019;51.080;13.642;2022-09-21T01:56:31;10.00;80.00
74488;DHT22;63019;51.080;13.642;2022-09-21T01:57:38;10.00;80.50
74488;DHT22;63019;51.080;13.642;2022-09-21T01:59:52;10.00;80.70
74488;DHT22;63019;51.080;13.642;2022-09-21T02:00:55;10.00;80.40
74488;DHT22;63019;51.080;13.642;2022-09-21T02:02:07;10.00;80.50
74488;DHT22;63019;51.080;13.642;2022-09-21T02:04:20;9.90;81.70
74488;DHT22;63019;51.080;13.642;2022-09-21T02:05:24;9.90;82.00
74488;DHT22;63019;51.080;13.642;2022-09-21T02:06:27;9.90;82.00
74488;DHT22;63019;51.080;13.642;2022-09-21T02:07:32;9.90;81.90
74488;DHT22;63019;51.080;13.642;2022-09-21T02:08:35;9.90;82.00
74488;DHT22;63019;51.080;13.642;2022-09-21T02:09:37;9.90;81.80
74488;DHT22;63019;51.080;13.642;2022-09-21T02:10:47;9.80;81.90
74488;DHT22;63019;51.080;13.642;2022-09-21T02:11:50;9.80;82.10
74488;DHT22;63019;51.080;13.642;2022-09-21T02:12:55;9.80;82.30
74488;DHT22;63019;51.080;13.642;2022-09-21T02:14:02;9.80;82.70
74488;DHT22;63019;51.080;13.642;2022-09-21T02:15:03;9.80;82.60
74488;DHT22;63019;51.080;13.642;2022-09-21T02:18:51;9.70;82.90
74488;DHT22;63019;51.080;13.642;2022-09-21T02:21:01;9.70;83.00
74488;DHT22;63019;51.080;13.642;2022-09-21T02:22:08;9.70;83.20
74488;DHT22;63019;51.080;13.642;2022-09-21T02:23:18;9.70;83.10
74488;DHT22;63019;51.080;13.642;2022-09-21T02:24:47;9.70;83.30
74488;DHT22;63019;51.080;13.642;2022-09-21T02:26:02;9.70;83.40
74488;DHT22;63019;51.080;13.642;2022-09-21T02:27:22;9.70;83.20
74488;DHT22;63019;51.080;13.642;2022-09-21T02:28:40;9.70;83.20
74488;DHT22;63019;51.080;13.642;2022-09-21T02:31:36;9.70;83.40
74488;DHT22;63019;51.080;13.642;2022-09-21T02:32:58;9.70;83.40
74488;DHT22;63019;51.080;13.642;2022-09-21T02:34:21;9.70;83.40
74488;DHT22;63019;51.080;13.642;2022-09-21T02:36:59;9.70;83.80
74488;DHT22;63019;51.080;13.642;2022-09-21T02:38:07;9.60;83.60
74488;DHT22;63019;51.080;13.642;2022-09-21T02:42:16;9.70;83.40
74488;DHT22;63019;51.080;13.642;2022-09-21T02:43:44;9.70;83.50
74488;DHT22;63019;51.080;13.642;2022-09-21T02:45:06;9.70;83.50
74488;DHT22;63019;51.080;13.642;2022-09-21T02:46:18;9.70;83.30
74488;DHT22;63019;51.080;13.642;2022-09-21T02:47:25;9.70;83.40
74488;DHT22;63019;51.080;13.642;2022-09-21T02:48:35;9.70;83.20
74488;DHT22;63019;51.080;13.642;2022-09-21T02:49:44;9.70;83.40
74488;DHT22;63019;51.080;13.642;2022-09-21T02:50:51;9.60;83.40
74488;DHT22;63019;51.080;13.642;2022-09-21T02:51:58;9.60;83.20
74488;DHT22;63019;51.080;13.642;2022-09-21T02:53:03;9.60;83.10
74488;DHT22;63019;51.080;13.642;2022-09-21T02:54:08;9.60;83.20
74488;DHT22;63019;51.080;13.642;2022-09-21T02:55:12;9.60;83.70
74488;DHT22;63019;51.080;13.642;2022-09-21T02:56:15;9.60;83.50
74488;DHT22;63019;51.080;13.642;2022-09-21T02:57:19;9.60;83.20
74488;DHT22;63019;51.080;13.642;2022-09-21T02:58:24;9.70;83.40
74488;DHT22;63019;51.080;13.642;2022-09-21T02:59:27;9.60;83.10
74488;DHT22;63019;51.080;13.642;2022-09-21T03:00:29;9.60;83.30
74488;DHT22;63019;51.080;13.642;2022-09-21T03:01:31;9.70;82.90
74488;DHT22;63019;51.080;13.642;2022-09-21T03:02:38;9.70;83.20
74488;DHT22;63019;51.080;13.642;2022-09-21T03:03:40;9.70;83.40
74488;DHT22;63019;51.080;13.642;2022-09-21T03:04:44;9.70;83.30
74488;DHT22;63019;51.080;13.642;2022-09-21T03:05:52;9.70;83.30
74488;DHT22;63019;51.080;13.642;2022-09-21T03:06:54;9.70;83.00
74488;DHT22;63019;51.080;13.642;2022-09-21T03:07:57;9.70;82.80
74488;DHT22;63019;51.080;13.642;2022-09-21T03:08:59;9.70;82.70
74488;DHT22;63019;51.080;13.642;2022-09-21T03:10:01;9.70;82.80
74488;DHT22;63019;51.080;13.642;2022-09-21T03:11:03;9.70;82.80
74488;DHT22;63019;51.080;13.642;2022-09-21T03:12:04;9.70;82.80
74488;DHT22;63019;51.080;13.642;2022-09-21T03:13:07;9.70;82.90
74488;DHT22;63019;51.080;13.642;2022-09-21T03:14:12;9.70;82.60
74488;DHT22;63019;51.080;13.642;2022-09-21T03:15:13;9.70;82.80
74488;DHT22;63019;51.080;13.642;2022-09-21T03:16:17;9.70;82.80
74488;DHT22;63019;51.080;13.642;2022-09-21T03:17:19;9.70;82.40
74488;DHT22;63019;51.080;13.642;2022-09-21T03:18:20;9.70;82.30
74488;DHT22;63019;51.080;13.642;2022-09-21T03:19:22;9.70;82.60
74488;DHT22;63019;51.080;13.642;2022-09-21T03:20:24;9.70;82.70
74488;DHT22;63019;51.080;13.642;2022-09-21T03:21:26;9.60;83.00
74488;DHT22;63019;51.080;13.642;2022-09-21T03:22:28;9.70;82.70
74488;DHT22;63019;51.080;13.642;2022-09-21T03:23:30;9.70;82.80
74488;DHT22;63019;51.080;13.642;2022-09-21T03:24:32;9.70;82.90
74488;DHT22;63019;51.080;13.642;2022-09-21T03:25:49;9.60;82.80
74488;DHT22;63019;51.080;13.642;2022-09-21T03:26:50;9.70;82.60
74488;DHT22;63019;51.080;13.642;2022-09-21T03:27:52;9.70;82.70
74488;DHT22;63019;51.080;13.642;2022-09-21T03:28:54;9.70;82.80
74488;DHT22;63019;51.080;13.642;2022-09-21T03:29:56;9.70;82.80
74488;DHT22;63019;51.080;13.642;2022-09-21T03:31:02;9.70;82.70
74488;DHT22;63019;51.080;13.642;2022-09-21T03:32:04;9.70;82.70
74488;DHT22;63019;51.080;13.642;2022-09-21T03:33:06;9.60;82.90
74488;DHT22;63019;51.080;13.642;2022-09-21T03:34:08;9.60;82.70
74488;DHT22;63019;51.080;13.642;2022-09-21T03:35:11;9.60;82.50
74488;DHT22;63019;51.080;13.642;2022-09-21T03:36:13;9.60;82.80
74488;DHT22;63019;51.080;13.642;2022-09-21T03:37:15;9.60;82.70
74488;DHT22;63019;51.080;13.642;2022-09-21T03:38:18;9.60;82.80
74488;DHT22;63019;51.080;13.642;2022-09-21T03:39:20;9.60;82.70
74488;DHT22;63019;51.080;13.642;2022-09-21T03:40:22;9.60;82.80
74488;DHT22;63019;51.080;13.642;2022-09-21T03:41:24;9.60;82.60
74488;DHT22;63019;51.080;13.642;2022-09-21T03:42:25;9.60;82.70
74488;DHT22;63019;51.080;13.642;2022-09-21T03:43:27;9.60;82.60
74488;DHT22;63019;51.080;13.642;2022-09-21T03:44:29;9.60;82.90
74488;DHT22;63019;51.080;13.642;2022-09-21T03:45:30;9.60;82.60
74488;DHT22;63019;51.080;13.642;2022-09-21T03:46:32;9.60;82.50
74488;DHT22;63019;51.080;13.642;2022-09-21T03:47:36;9.60;82.80
74488;DHT22;63019;51.080;13.642;2022-09-21T03:48:38;9.60;83.10
74488;DHT22;63019;51.080;13.642;2022-09-21T03:49:42;9.60;82.50
74488;DHT22;63019;51.080;13.642;2022-09-21T03:50:44;9.60;82.70
74488;DHT22;63019;51.080;13.642;2022-09-21T03:51:46;9.60;82.30
74488;DHT22;63019;51.080;13.642;2022-09-21T03:52:48;9.60;82.60
74488;DHT22;63019;51.080;13.642;2022-09-21T03:53:49;9.60;82.50
74488;DHT22;63019;51.080;13.642;2022-09-21T03:54:51;9.60;82.20
74488;DHT22;63019;51.080;13.642;2022-09-21T03:55:53;9.60;82.40
74488;DHT22;63019;51.080;13.642;2022-09-21T03:56:54;9.60;82.70
74488;DHT22;63019;51.080;13.642;2022-09-21T03:57:56;9.60;82.60
74488;DHT22;63019;51.080;13.642;2022-09-21T03:58:58;9.50;82.90
74488;DHT22;63019;51.080;13.642;2022-09-21T04:00:00;9.50;82.60
74488;DHT22;63019;51.080;13.642;2022-09-21T04:01:04;9.50;82.80
74488;DHT22;63019;51.080;13.642;2022-09-21T04:02:05;9.50;82.70
74488;DHT22;63019;51.080;13.642;2022-09-21T04:03:07;9.50;82.30
74488;DHT22;63019;51.080;13.642;2022-09-21T04:04:09;9.50;82.80
74488;DHT22;63019;51.080;13.642;2022-09-21T04:05:13;9.50;82.80
74488;DHT22;63019;51.080;13.642;2022-09-21T04:06:15;9.50;82.90
74488;DHT22;63019;51.080;13.642;2022-09-21T04:07:17;9.50;82.80
74488;DHT22;63019;51.080;13.642;2022-09-21T04:08:19;9.50;82.80
74488;DHT22;63019;51.080;13.642;2022-09-21T04:09:20;9.50;83.00
74488;DHT22;63019;51.080;13.642;2022-09-21T04:10:24;9.40;82.70
74488;DHT22;63019;51.080;13.642;2022-09-21T04:11:29;9.40;83.10
74488;DHT22;63019;51.080;13.642;2022-09-21T04:12:34;9.40;82.90
74488;DHT22;63019;51.080;13.642;2022-09-21T04:13:36;9.40;83.00
74488;DHT22;63019;51.080;13.642;2022-09-21T04:14:38;9.40;83.10
74488;DHT22;63019;51.080;13.642;2022-09-21T04:15:40;9.40;83.10
74488;DHT22;63019;51.080;13.642;2022-09-21T04:16:41;9.40;83.20
74488;DHT22;63019;51.080;13.642;2022-09-21T04:17:43;9.40;82.80
74488;DHT22;63019;51.080;13.642;2022-09-21T04:18:45;9.40;83.00
74488;DHT22;63019;51.080;13.642;2022-09-21T04:19:48;9.40;83.70
74488;DHT22;63019;51.080;13.642;2022-09-21T04:20:50;9.40;82.70
74488;DHT22;63019;51.080;13.642;2022-09-21T04:21:52;9.40;83.10
74488;DHT22;63019;51.080;13.642;2022-09-21T04:22:54;9.40;82.90
74488;DHT22;63019;51.080;13.642;2022-09-21T04:23:55;9.40;83.00
74488;DHT22;63019;51.080;13.642;2022-09-21T04:24:57;9.30;82.70
74488;DHT22;63019;51.080;13.642;2022-09-21T04:25:59;9.30;82.90
74488;DHT22;63019;51.080;13.642;2022-09-21T04:27:00;9.40;82.90
74488;DHT22;63019;51.080;13.642;2022-09-21T04:28:02;9.40;83.10
74488;DHT22;63019;51.080;13.642;2022-09-21T04:29:04;9.40;82.80
74488;DHT22;63019;51.080;13.642;2022-09-21T04:30:08;9.30;82.70
74488;DHT22;63019;51.080;13.642;2022-09-21T04:31:10;9.30;83.20
74488;DHT22;63019;51.080;13.642;2022-09-21T04:32:12;9.30;82.90
74488;DHT22;63019;51.080;13.642;2022-09-21T04:33:13;9.30;83.10
74488;DHT22;63019;51.080;13.642;2022-09-21T04:34:16;9.30;83.70
74488;DHT22;63019;51.080;13.642;2022-09-21T04:35:17;9.30;83.20
74488;DHT22;63019;51.080;13.642;2022-09-21T04:36:20;9.20;83.30
74488;DHT22;63019;51.080;13.642;2022-09-21T04:37:22;9.20;83.30
74488;DHT22;63019;51.080;13.642;2022-09-21T04:38:24;9.20;83.40
74488;DHT22;63019;51.080;13.642;2022-09-21T04:39:26;9.20;84.00
74488;DHT22;63019;51.080;13.642;2022-09-21T04:40:27;9.20;83.60
74488;DHT22;63019;51.080;13.642;2022-09-21T04:41:29;9.20;83.70
74488;DHT22;63019;51.080;13.642;2022-09-21T04:42:31;9.20;83.90
74488;DHT22;63019;51.080;13.642;2022-09-21T04:43:33;9.20;83.70
74488;DHT22;63019;51.080;13.642;2022-09-21T04:44:35;9.20;83.90
74488;DHT22;63019;51.080;13.642;2022-09-21T04:45:36;9.20;83.70
74488;DHT22;63019;51.080;13.642;2022-09-21T04:46:38;9.10;84.00
74488;DHT22;63019;51.080;13.642;2022-09-21T04:47:40;9.10;84.50
74488;DHT22;63019;51.080;13.642;2022-09-21T04:48:42;9.10;84.00
74488;DHT22;63019;51.080;13.642;2022-09-21T04:49:44;9.10;84.30
74488;DHT22;63019;51.080;13.642;2022-09-21T04:50:49;9.10;84.10
74488;DHT22;63019;51.080;13.642;2022-09-21T04:51:51;9.10;84.40
74488;DHT22;63019;51.080;13.642;2022-09-21T04:52:52;9.10;84.30
74488;DHT22;63019;51.080;13.642;2022-09-21T04:53:54;9.10;84.30
74488;DHT22;63019;51.080;13.642;2022-09-21T04:54:56;9.10;84.20
74488;DHT22;63019;51.080;13.642;2022-09-21T04:55:57;9.10;84.10
74488;DHT22;63019;51.080;13.642;2022-09-21T04:56:59;9.10;84.60
74488;DHT22;63019;51.080;13.642;2022-09-21T04:58:01;9.00;84.60
74488;DHT22;63019;51.080;13.642;2022-09-21T04:59:02;9.00;84.80
74488;DHT22;63019;51.080;13.642;2022-09-21T05:00:05;9.00;84.70
74488;DHT22;63019;51.080;13.642;2022-09-21T05:01:07;9.00;84.80
74488;DHT22;63019;51.080;13.642;2022-09-21T05:02:09;9.00;84.70
74488;DHT22;63019;51.080;13.642;2022-09-21T05:03:10;9.00;85.00
74488;DHT22;63019;51.080;13.642;2022-09-21T05:04:12;9.00;84.60
74488;DHT22;63019;51.080;13.642;2022-09-21T05:05:14;9.00;84.80
74488;DHT22;63019;51.080;13.642;2022-09-21T05:06:15;9.00;84.80
74488;DHT22;63019;51.080;13.642;2022-09-21T05:07:17;9.00;84.80
74488;DHT22;63019;51.080;13.642;2022-09-21T05:08:20;9.00;84.50
74488;DHT22;63019;51.080;13.642;2022-09-21T05:09:42;9.00;84.80
74488;DHT22;63019;51.080;13.642;2022-09-21T05:11:02;9.00;84.80
74488;DHT22;63019;51.080;13.642;2022-09-21T05:12:04;9.00;85.30
74488;DHT22;63019;51.080;13.642;2022-09-21T05:13:06;9.10;85.20
74488;DHT22;63019;51.080;13.642;2022-09-21T05:14:08;9.00;85.30
74488;DHT22;63019;51.080;13.642;2022-09-21T05:15:10;9.10;85.30
74488;DHT22;63019;51.080;13.642;2022-09-21T05:16:13;9.10;85.30
74488;DHT22;63019;51.080;13.642;2022-09-21T05:17:15;9.10;85.30
74488;DHT22;63019;51.080;13.642;2022-09-21T05:18:17;9.10;85.20
74488;DHT22;63019;51.080;13.642;2022-09-21T05:19:18;9.10;85.10
74488;DHT22;63019;51.080;13.642;2022-09-21T05:20:20;9.10;85.20
74488;DHT22;63019;51.080;13.642;2022-09-21T05:21:22;9.10;85.00
74488;DHT22;63019;51.080;13.642;2022-09-21T05:22:24;9.20;84.90
74488;DHT22;63019;51.080;13.642;2022-09-21T05:23:26;9.20;84.90
74488;DHT22;63019;51.080;13.642;2022-09-21T05:24:30;9.20;85.00
74488;DHT22;63019;51.080;13.642;2022-09-21T05:25:32;9.20;84.80
74488;DHT22;63019;51.080;13.642;2022-09-21T05:26:33;9.20;84.80
74488;DHT22;63019;51.080;13.642;2022-09-21T05:27:35;9.20;84.90
74488;DHT22;63019;51.080;13.642;2022-09-21T05:28:37;9.20;84.80
74488;DHT22;63019;51.080;13.642;2022-09-21T05:29:41;9.20;84.90
74488;DHT22;63019;51.080;13.642;2022-09-21T05:30:43;9.20;84.80
74488;DHT22;63019;51.080;13.642;2022-09-21T05:33:28;9.30;84.90
74488;DHT22;63019;51.080;13.642;2022-09-21T05:36:26;9.30;84.70
74488;DHT22;63019;51.080;13.642;2022-09-21T05:38:29;9.30;84.80
74488;DHT22;63019;51.080;13.642;2022-09-21T05:39:31;9.30;84.60
74488;DHT22;63019;51.080;13.642;2022-09-21T05:40:33;9.30;84.50
74488;DHT22;63019;51.080;13.642;2022-09-21T05:41:35;9.30;84.80
74488;DHT22;63019;51.080;13.642;2022-09-21T05:42:38;9.30;84.30
74488;DHT22;63019;51.080;13.642;2022-09-21T05:43:40;9.30;84.90
74488;DHT22;63019;51.080;13.642;2022-09-21T05:44:42;9.30;84.80
74488;DHT22;63019;51.080;13.642;2022-09-21T05:45:46;9.30;84.70
74488;DHT22;63019;51.080;13.642;2022-09-21T05:46:54;9.30;85.00
74488;DHT22;63019;51.080;13.642;2022-09-21T05:48:05;9.30;84.50
74488;DHT22;63019;51.080;13.642;2022-09-21T05:51:57;9.40;84.50
74488;DHT22;63019;51.080;13.642;2022-09-21T05:54:33;9.40;84.20
74488;DHT22;63019;51.080;13.642;2022-09-21T05:55:44;9.40;84.40
74488;DHT22;63019;51.080;13.642;2022-09-21T05:59:01;9.30;83.90
74488;DHT22;63019;51.080;13.642;2022-09-21T05:59:52;9.30;84.80
74488;DHT22;63019;51.080;13.642;2022-09-21T06:01:30;9.40;84.30
74488;DHT22;63019;51.080;13.642;2022-09-21T06:03:41;9.40;83.90
74488;DHT22;63019;51.080;13.642;2022-09-21T06:04:43;9.40;83.90
74488;DHT22;63019;51.080;13.642;2022-09-21T06:05:45;9.40;84.00
74488;DHT22;63019;51.080;13.642;2022-09-21T06:06:46;9.40;83.80
74488;DHT22;63019;51.080;13.642;2022-09-21T06:07:48;9.40;84.00
74488;DHT22;63019;51.080;13.642;2022-09-21T06:08:50;9.40;83.70
74488;DHT22;63019;51.080;13.642;2022-09-21T06:09:52;9.40;83.40
74488;DHT22;63019;51.080;13.642;2022-09-21T06:10:54;9.40;84.00
74488;DHT22;63019;51.080;13.642;2022-09-21T06:11:56;9.40;83.90
74488;DHT22;63019;51.080;13.642;2022-09-21T06:12:58;9.40;83.50
74488;DHT22;63019;51.080;13.642;2022-09-21T06:14:00;9.40;83.70
74488;DHT22;63019;51.080;13.642;2022-09-21T06:15:05;9.40;83.90
74488;DHT22;63019;51.080;13.642;2022-09-21T06:16:07;9.40;83.90
74488;DHT22;63019;51.080;13.642;2022-09-21T06:17:08;9.40;84.30
74488;DHT22;63019;51.080;13.642;2022-09-21T06:18:10;9.40;83.80
74488;DHT22;63019;51.080;13.642;2022-09-21T06:19:18;9.40;83.90
74488;DHT22;63019;51.080;13.642;2022-09-21T06:20:20;9.40;83.80
74488;DHT22;63019;51.080;13.642;2022-09-21T06:21:21;9.40;83.50
74488;DHT22;63019;51.080;13.642;2022-09-21T06:22:23;9.50;84.00
74488;DHT22;63019;51.080;13.642;2022-09-21T06:23:25;9.50;84.00
74488;DHT22;63019;51.080;13.642;2022-09-21T06:24:27;9.50;84.10
74488;DHT22;63019;51.080;13.642;2022-09-21T06:25:28;9.50;83.70
74488;DHT22;63019;51.080;13.642;2022-09-21T06:26:30;9.50;83.60
74488;DHT22;63019;51.080;13.642;2022-09-21T06:27:32;9.50;83.80
74488;DHT22;63019;51.080;13.642;2022-09-21T06:28:33;9.50;83.50
74488;DHT22;63019;51.080;13.642;2022-09-21T06:29:35;9.50;83.50
74488;DHT22;63019;51.080;13.642;2022-09-21T06:30:38;9.60;83.50
74488;DHT22;63019;51.080;13.642;2022-09-21T06:31:42;9.60;83.20
74488;DHT22;63019;51.080;13.642;2022-09-21T06:32:44;9.60;83.60
74488;DHT22;63019;51.080;13.642;2022-09-21T06:33:45;9.60;83.30
74488;DHT22;63019;51.080;13.642;2022-09-21T06:34:48;9.60;83.00
74488;DHT22;63019;51.080;13.642;2022-09-21T06:35:57;9.70;82.80
74488;DHT22;63019;51.080;13.642;2022-09-21T06:36:59;9.60;82.90
74488;DHT22;63019;51.080;13.642;2022-09-21T06:38:04;9.60;82.70
74488;DHT22;63019;51.080;13.642;2022-09-21T06:39:06;9.70;83.20
74488;DHT22;63019;51.080;13.642;2022-09-21T06:40:08;9.60;82.90
74488;DHT22;63019;51.080;13.642;2022-09-21T06:41:10;9.60;82.90
74488;DHT22;63019;51.080;13.642;2022-09-21T06:42:11;9.60;83.10
74488;DHT22;63019;51.080;13.642;2022-09-21T06:43:13;9.60;83.50
74488;DHT22;63019;51.080;13.642;2022-09-21T06:44:15;9.60;83.30
74488;DHT22;63019;51.080;13.642;2022-09-21T06:45:17;9.60;83.30
74488;DHT22;63019;51.080;13.642;2022-09-21T06:46:19;9.70;82.90
74488;DHT22;63019;51.080;13.642;2022-09-21T06:47:21;9.70;83.00
74488;DHT22;63019;51.080;13.642;2022-09-21T06:48:23;9.70;82.50
74488;DHT22;63019;51.080;13.642;2022-09-21T06:49:25;9.70;82.80
74488;DHT22;63019;51.080;13.642;2022-09-21T06:50:29;9.70;83.00
74488;DHT22;63019;51.080;13.642;2022-09-21T06:51:31;9.70;82.90
74488;DHT22;63019;51.080;13.642;2022-09-21T06:52:32;9.70;82.80
74488;DHT22;63019;51.080;13.642;2022-09-21T06:53:34;9.70;83.20
74488;DHT22;63019;51.080;13.642;2022-09-21T06:54:36;9.70;83.10
74488;DHT22;63019;51.080;13.642;2022-09-21T06:55:37;9.70;83.30
74488;DHT22;63019;51.080;13.642;2022-09-21T06:56:39;9.70;83.10
74488;DHT22;63019;51.080;13.642;2022-09-21T06:57:43;9.80;83.30
74488;DHT22;63019;51.080;13.642;2022-09-21T06:58:45;9.80;82.70
74488;DHT22;63019;51.080;13.642;2022-09-21T06:59:48;9.80;83.00
74488;DHT22;63019;51.080;13.642;2022-09-21T07:00:49;9.90;82.80
74488;DHT22;63019;51.080;13.642;2022-09-21T07:01:51;9.90;82.10
74488;DHT22;63019;51.080;13.642;2022-09-21T07:02:56;9.90;82.20
74488;DHT22;63019;51.080;13.642;2022-09-21T07:03:58;9.90;82.20
74488;DHT22;63019;51.080;13.642;2022-09-21T07:05:00;9.90;82.20
74488;DHT22;63019;51.080;13.642;2022-09-21T07:06:02;9.90;82.10
74488;DHT22;63019;51.080;13.642;2022-09-21T07:07:04;10.00;81.20
74488;DHT22;63019;51.080;13.642;2022-09-21T07:08:06;10.00;81.10
74488;DHT22;63019;51.080;13.642;2022-09-21T07:09:27;10.00;81.00
74488;DHT22;63019;51.080;13.642;2022-09-21T07:10:49;10.10;80.60
74488;DHT22;63019;51.080;13.642;2022-09-21T07:11:51;10.10;81.00
74488;DHT22;63019;51.080;13.642;2022-09-21T07:12:52;10.10;80.70
74488;DHT22;63019;51.080;13.642;2022-09-21T07:13:54;10.10;80.50
74488;DHT22;63019;51.080;13.642;2022-09-21T07:15:00;10.10;81.50
74488;DHT22;63019;51.080;13.642;2022-09-21T07:16:03;10.20;80.90
74488;DHT22;63019;51.080;13.642;2022-09-21T07:17:07;10.20;80.60
74488;DHT22;63019;51.080;13.642;2022-09-21T07:18:13;10.20;80.50
74488;DHT22;63019;51.080;13.642;2022-09-21T07:19:14;10.30;80.20
74488;DHT22;63019;51.080;13.642;2022-09-21T07:20:16;10.30;80.20
74488;DHT22;63019;51.080;13.642;2022-09-21T07:21:18;10.30;80.70